createdAt,value
2023-02-11T00:01:44.798Z,101483.56
2023-02-11T00:04:34.550Z,101422.16
2023-02-11T00:07:21.164Z,101445.31
2023-02-11T00:10:08.692Z,101461.31
2023-02-11T00:12:57.823Z,101478.31
2023-02-11T00:15:44.161Z,101465.88
2023-02-11T00:18:30.971Z,101467.09
2023-02-11T00:21:19.618Z,101469.34
2023-02-11T00:24:06.788Z,101436.09
2023-02-11T00:26:53.110Z,101459.66
2023-02-11T00:29:40.151Z,101461.69
2023-02-11T00:32:26.949Z,101433.31
2023-02-11T00:35:16.192Z,101436.53
2023-02-11T00:38:02.855Z,101425.72
2023-02-11T00:40:51.181Z,101431.34
2023-02-11T00:43:37.615Z,101402.34
2023-02-11T00:46:27.214Z,101327.34
2023-02-11T00:49:14.462Z,101338.25
2023-02-11T00:52:00.954Z,101372.56
2023-02-11T00:54:47.579Z,101359.72
2023-02-11T00:57:34.521Z,101362.19
2023-02-11T01:00:22.930Z,101308.00
2023-02-11T01:03:09.921Z,101347.88
2023-02-11T01:05:56.318Z,101346.81
2023-02-11T01:08:43.498Z,101348.66
2023-02-11T01:11:29.967Z,101351.13
2023-02-11T01:14:17.079Z,101330.44
2023-02-11T01:17:06.224Z,101334.00
2023-02-11T01:19:53.206Z,101301.13
2023-02-11T01:22:40.544Z,101353.03
2023-02-11T01:25:28.188Z,101298.88
2023-02-11T01:28:23.143Z,101308.63
2023-02-11T01:31:10.287Z,101318.41
2023-02-11T01:33:56.808Z,101371.75
2023-02-11T01:36:43.414Z,101369.69
2023-02-11T01:39:29.662Z,101375.09
2023-02-11T01:42:17.987Z,101345.91
2023-02-11T01:45:42.855Z,101363.84
2023-02-11T01:48:39.693Z,101362.19
2023-02-11T01:51:30.905Z,101357.84
2023-02-11T01:54:40.598Z,101315.22
2023-02-11T01:57:30.151Z,101338.34
2023-02-11T02:00:21.692Z,101344.97
2023-02-11T02:03:11.892Z,101322.09
2023-02-11T02:06:04.417Z,101296.00
2023-02-11T02:08:55.059Z,101302.13
2023-02-11T02:11:41.597Z,101277.78
2023-02-11T02:14:30.953Z,101275.19
2023-02-11T02:17:43.071Z,101289.03
2023-02-11T02:20:44.518Z,101289.25
2023-02-11T02:24:05.230Z,101281.81
2023-02-11T02:27:17.522Z,101272.28
2023-02-11T02:30:28.406Z,101290.69
2023-02-11T02:33:37.890Z,101276.75
2023-02-11T02:36:38.396Z,101255.22
2023-02-11T02:39:31.959Z,101251.94
2023-02-11T02:42:20.473Z,101274.47
2023-02-11T02:45:08.061Z,101263.44
2023-02-11T02:47:54.573Z,101252.63
2023-02-11T02:50:41.262Z,101243.53
2023-02-11T02:53:48.632Z,101241.88
2023-02-11T02:56:44.829Z,101248.66
2023-02-11T02:59:43.878Z,101206.97
2023-02-11T03:02:48.249Z,101200.81
2023-02-11T03:05:54.128Z,101245.13
2023-02-11T03:08:46.837Z,101225.59
2023-02-11T03:11:34.875Z,101220.59
2023-02-11T03:14:22.427Z,101213.59
2023-02-11T03:17:10.030Z,101206.47
2023-02-11T03:19:57.282Z,101198.28
2023-02-11T03:23:07.799Z,101190.63
2023-02-11T03:25:58.301Z,101184.84
2023-02-11T03:28:55.557Z,101146.78
2023-02-11T03:31:44.613Z,101168.47
2023-02-11T03:34:44.655Z,101149.94
2023-02-11T03:37:37.699Z,101142.59
2023-02-11T03:40:32.146Z,101138.44
2023-02-11T03:43:21.283Z,101155.03
2023-02-11T03:46:09.043Z,101139.34
2023-02-11T03:49:00.635Z,101148.00
2023-02-11T03:51:52.685Z,101126.88
2023-02-11T03:54:42.027Z,101113.25
2023-02-11T03:57:29.001Z,101137.63
2023-02-11T04:00:15.917Z,101074.84
2023-02-11T04:03:03.426Z,101074.97
2023-02-11T04:05:51.962Z,101147.88
2023-02-11T04:08:38.833Z,101128.38
2023-02-11T04:11:27.786Z,101119.91
2023-02-11T04:14:14.451Z,101122.38
2023-02-11T04:17:00.766Z,101060.28
2023-02-11T04:19:47.200Z,101095.53
2023-02-11T04:22:33.801Z,101111.34
2023-02-11T04:25:21.015Z,101097.47
2023-02-11T04:28:07.550Z,101079.09
2023-02-11T04:30:54.568Z,101106.75
2023-02-11T04:33:40.875Z,101090.84
2023-02-11T04:36:27.491Z,101088.91
2023-02-11T04:39:14.020Z,101075.38
2023-02-11T04:42:00.861Z,101035.59
2023-02-11T04:44:47.151Z,101081.94
2023-02-11T04:47:34.636Z,101031.31
2023-02-11T04:50:21.305Z,101082.81
2023-02-11T04:53:07.927Z,101034.03
2023-02-11T04:55:55.391Z,101049.00
2023-02-11T04:58:47.382Z,101063.16
2023-02-11T05:01:33.920Z,101065.03
2023-02-11T05:04:22.905Z,101022.69
2023-02-11T05:07:12.253Z,101071.09
2023-02-11T05:09:59.187Z,101075.22
2023-02-11T05:12:48.466Z,101059.31
2023-02-11T05:15:38.357Z,101044.00
2023-02-11T05:18:27.587Z,101026.47
2023-02-11T05:21:17.446Z,101058.03
2023-02-11T05:24:04.151Z,101044.75
2023-02-11T05:26:58.299Z,101055.25
2023-02-11T05:29:44.690Z,101012.16
2023-02-11T05:32:31.052Z,101024.78
2023-02-11T05:35:17.628Z,100985.91
2023-02-11T05:38:04.389Z,101035.75
2023-02-11T05:40:51.042Z,101019.00
2023-02-11T05:43:38.035Z,100965.56
2023-02-11T05:46:24.368Z,101023.88
2023-02-11T05:49:10.798Z,101017.16
2023-02-11T05:51:57.462Z,101021.03
2023-02-11T05:54:44.528Z,100988.06
2023-02-11T05:57:31.016Z,101024.00
2023-02-11T06:00:18.067Z,100986.81
2023-02-11T06:03:04.826Z,101006.13
2023-02-11T06:05:52.149Z,100962.56
2023-02-11T06:08:44.430Z,101002.72
2023-02-11T06:11:30.997Z,101016.03
2023-02-11T06:14:17.383Z,100983.94
2023-02-11T06:17:04.267Z,100991.44
2023-02-11T06:19:53.078Z,100974.63
2023-02-11T06:22:39.695Z,100991.56
2023-02-11T06:25:26.186Z,100998.75
2023-02-11T06:28:13.207Z,100983.94
2023-02-11T06:31:06.638Z,100970.63
2023-02-11T06:33:55.204Z,100983.34
2023-02-11T06:36:41.848Z,100990.50
2023-02-11T06:39:28.355Z,100938.03
2023-02-11T06:42:14.926Z,100953.81
2023-02-11T06:45:01.600Z,100980.28
2023-02-11T06:47:48.299Z,100957.47
2023-02-11T06:50:37.336Z,100927.94
2023-02-11T06:53:25.359Z,100962.88
2023-02-11T06:56:17.811Z,100971.59
2023-02-11T06:59:04.473Z,100973.03
2023-02-11T07:01:51.063Z,100947.38
2023-02-11T07:04:37.367Z,100945.97
2023-02-11T07:07:23.774Z,100976.06
2023-02-11T07:10:10.371Z,100962.31
2023-02-11T07:12:58.786Z,100972.22
2023-02-11T07:15:45.361Z,100953.16
2023-02-11T07:18:32.168Z,100941.03
2023-02-11T07:21:21.181Z,100959.75
2023-02-11T07:24:11.078Z,100957.13
2023-02-11T07:26:57.626Z,100954.81
2023-02-11T07:29:47.035Z,100958.91
2023-02-11T07:32:35.649Z,100973.63
2023-02-11T07:35:23.742Z,100957.16
2023-02-11T07:38:10.971Z,100905.28
2023-02-11T07:41:03.983Z,100968.09
2023-02-11T07:43:52.115Z,100970.81
2023-02-11T07:46:43.094Z,100912.72
2023-02-11T07:49:29.746Z,100968.47
2023-02-11T07:52:16.153Z,100964.34
2023-02-11T07:55:04.862Z,100973.50
2023-02-11T07:57:52.325Z,100960.56
2023-02-11T08:00:43.355Z,100970.09
2023-02-11T08:03:31.149Z,100964.44
2023-02-11T08:06:22.488Z,100965.03
2023-02-11T08:09:14.555Z,100963.16
2023-02-11T08:12:11.843Z,100955.97
2023-02-11T08:14:59.697Z,100930.34
2023-02-11T08:17:47.784Z,100959.28
2023-02-11T08:20:34.220Z,100913.56
2023-02-11T08:23:20.862Z,100969.41
2023-02-11T08:26:13.911Z,100964.91
2023-02-11T08:29:01.699Z,100947.03
2023-02-11T08:31:48.432Z,100902.97
2023-02-11T08:34:37.903Z,100944.31
2023-02-11T08:37:26.092Z,100952.91
2023-02-11T08:40:12.483Z,100945.25
2023-02-11T08:42:59.101Z,100896.81
2023-02-11T08:45:45.619Z,100908.53
2023-02-11T08:48:32.547Z,100893.16
2023-02-11T08:51:27.353Z,100905.84
2023-02-11T08:54:14.441Z,100855.28
2023-02-11T08:57:02.089Z,100930.41
2023-02-11T08:59:49.839Z,100939.09
2023-02-11T09:02:36.259Z,100912.06
2023-02-11T09:05:26.129Z,100859.19
2023-02-11T09:08:15.910Z,100924.84
2023-02-11T09:11:03.909Z,100924.38
2023-02-11T09:13:52.559Z,100944.13
2023-02-11T09:16:43.532Z,100911.94
2023-02-11T09:19:29.754Z,100944.03
2023-02-11T09:22:16.704Z,100927.09
2023-02-11T09:25:06.565Z,100929.41
2023-02-11T09:27:53.907Z,100909.31
2023-02-11T09:30:40.131Z,100882.88
2023-02-11T09:33:27.320Z,100929.34
2023-02-11T09:36:16.554Z,100929.94
2023-02-11T09:39:05.176Z,100926.66
2023-02-11T09:42:04.665Z,100905.63
2023-02-11T09:44:53.887Z,100895.88
2023-02-11T09:47:47.428Z,100910.81
2023-02-11T09:50:58.130Z,100927.94
2023-02-11T09:53:45.044Z,100882.59
2023-02-11T09:56:31.901Z,100907.91
2023-02-11T09:59:18.910Z,100919.25
2023-02-11T10:02:17.002Z,100870.75
2023-02-11T10:05:24.815Z,100923.94
2023-02-11T10:08:26.425Z,100931.00
2023-02-11T10:11:30.587Z,100919.69
2023-02-11T10:14:55.656Z,100881.25
2023-02-11T10:18:15.202Z,100873.72
2023-02-11T10:21:18.074Z,100886.19
2023-02-11T10:24:11.120Z,100871.72
2023-02-11T10:26:58.395Z,100873.72
2023-02-11T10:29:52.770Z,100886.75
2023-02-11T10:32:45.160Z,100853.91
2023-02-11T10:35:31.998Z,100797.66
2023-02-11T10:38:19.009Z,100844.78
2023-02-11T10:41:06.628Z,100811.78
2023-02-11T10:43:53.073Z,100816.69
2023-02-11T10:46:40.451Z,100752.41
2023-02-11T10:49:39.327Z,100802.41
2023-02-11T10:52:27.988Z,100788.63
2023-02-11T10:55:18.459Z,100779.22
2023-02-11T10:58:05.011Z,100743.94
2023-02-11T11:00:53.672Z,100786.56
2023-02-11T11:03:47.055Z,100753.03
2023-02-11T11:06:34.040Z,100791.13
2023-02-11T11:09:31.479Z,100800.25
2023-02-11T11:12:28.096Z,100757.41
2023-02-11T11:15:18.330Z,100775.09
2023-02-11T11:18:22.173Z,100772.44
2023-02-11T11:21:20.176Z,100768.66
2023-02-11T11:24:27.654Z,100761.03
2023-02-11T11:27:21.953Z,100776.78
2023-02-11T11:30:16.906Z,100789.78
2023-02-11T11:33:03.424Z,100795.19
2023-02-11T11:36:02.072Z,100774.31
2023-02-11T11:39:00.754Z,100803.19
2023-02-11T11:41:52.544Z,100802.34
2023-02-11T11:44:39.979Z,100801.38
2023-02-11T11:48:10.854Z,100802.16
2023-02-11T11:51:03.196Z,100804.31
2023-02-11T11:53:54.285Z,100803.56
2023-02-11T11:56:57.249Z,100810.00
2023-02-11T11:59:43.872Z,100824.44
2023-02-11T12:03:12.001Z,100836.44
2023-02-11T12:06:46.796Z,100850.25
2023-02-11T12:10:03.512Z,100840.47
2023-02-11T12:12:55.155Z,100852.13
2023-02-11T12:15:43.890Z,100856.75
2023-02-11T12:18:44.971Z,100846.63
2023-02-11T12:21:56.951Z,100848.53
2023-02-11T12:24:55.348Z,100856.69
2023-02-11T12:27:44.367Z,100859.13
2023-02-11T12:30:47.909Z,100833.56
2023-02-11T12:33:44.641Z,100808.19
2023-02-11T12:36:54.636Z,100829.00
2023-02-11T12:39:49.884Z,100780.38
2023-02-11T12:43:03.703Z,100792.81
2023-02-11T12:46:01.953Z,100828.63
2023-02-11T12:48:51.509Z,100824.34
2023-02-11T12:52:02.892Z,100803.56
2023-02-11T12:54:56.019Z,100817.84
2023-02-11T12:57:44.710Z,100762.59
2023-02-11T13:00:37.348Z,100784.34
2023-02-11T13:03:40.953Z,100776.16
2023-02-11T13:06:40.915Z,100834.13
2023-02-11T13:09:32.391Z,100818.00
2023-02-11T13:12:37.962Z,100831.13
2023-02-11T13:15:25.983Z,100824.50
2023-02-11T13:18:20.122Z,100836.56
2023-02-11T13:21:32.024Z,100844.19
2023-02-11T13:24:38.708Z,100848.88
2023-02-11T13:27:38.797Z,100848.88
2023-02-11T13:30:28.583Z,100841.81
2023-02-11T13:33:24.287Z,100838.84
2023-02-11T13:36:13.875Z,100801.94
2023-02-11T13:39:20.308Z,100825.97
2023-02-11T13:42:06.749Z,100821.00
2023-02-11T13:44:53.846Z,100847.47
2023-02-11T13:47:41.936Z,100807.88
2023-02-11T13:50:28.912Z,100840.75
2023-02-11T13:53:16.222Z,100854.31
2023-02-11T13:56:29.365Z,100848.81
2023-02-11T13:59:25.140Z,100850.25
2023-02-11T14:02:51.391Z,100861.13
2023-02-11T14:06:28.506Z,100870.66
2023-02-11T14:09:14.726Z,100844.41
2023-02-11T14:12:23.426Z,100838.56
2023-02-11T14:15:12.740Z,100887.00
2023-02-11T14:18:04.021Z,100894.91
2023-02-11T14:20:50.993Z,100904.69
2023-02-11T14:23:40.331Z,100898.38
2023-02-11T14:27:04.738Z,100911.28
2023-02-11T14:30:35.329Z,100909.13
2023-02-11T14:33:46.996Z,100919.47
2023-02-11T14:36:53.941Z,100924.63
2023-02-11T14:39:54.972Z,100923.25
2023-02-11T14:42:52.931Z,100927.34
2023-02-11T14:45:49.548Z,100921.84
2023-02-11T14:48:46.342Z,100931.41
2023-02-11T14:51:41.294Z,100931.06
2023-02-11T14:54:36.102Z,100926.66
2023-02-11T14:57:33.965Z,100942.00
2023-02-11T15:00:25.188Z,100936.28
2023-02-11T15:03:28.316Z,100938.13
2023-02-11T15:06:27.378Z,100924.66
2023-02-11T15:09:13.633Z,100901.94
2023-02-11T15:12:00.471Z,100910.66
2023-02-11T15:14:49.585Z,100960.19
2023-02-11T15:17:36.489Z,100923.16
2023-02-11T15:20:27.727Z,100957.66
2023-02-11T15:23:28.549Z,100963.66
2023-02-11T15:26:22.349Z,100974.56
2023-02-11T15:29:17.755Z,100941.38
2023-02-11T15:32:15.138Z,100977.56
2023-02-11T15:35:06.329Z,100976.72
2023-02-11T15:37:53.462Z,100979.44
2023-02-11T15:40:40.191Z,100948.13
2023-02-11T15:43:48.857Z,100987.56
2023-02-11T15:46:39.968Z,100995.78
2023-02-11T15:49:26.885Z,100990.78
2023-02-11T15:52:24.396Z,101003.84
2023-02-11T15:55:14.418Z,101012.06
2023-02-11T15:58:01.938Z,100969.84
2023-02-11T16:00:50.908Z,100948.00
2023-02-11T16:03:45.637Z,101019.66
2023-02-11T16:06:40.642Z,101028.06
2023-02-11T16:09:35.770Z,101029.38
2023-02-11T16:12:30.237Z,101018.59
2023-02-11T16:15:35.148Z,101035.56
2023-02-11T16:18:37.297Z,101039.06
2023-02-11T16:21:40.099Z,101004.47
2023-02-11T16:24:33.070Z,101041.22
2023-02-11T16:27:49.184Z,101034.28
2023-02-11T16:30:38.642Z,101051.25
2023-02-11T16:33:29.984Z,101024.59
2023-02-11T16:36:20.142Z,101036.13
2023-02-11T16:39:07.171Z,101013.03
2023-02-11T16:41:54.046Z,101055.78
2023-02-11T16:44:41.296Z,101078.13
2023-02-11T16:47:35.033Z,101040.81
2023-02-11T16:50:24.496Z,101058.41
2023-02-11T16:53:21.909Z,101086.28
2023-02-11T16:56:15.199Z,101089.84
2023-02-11T16:59:04.179Z,101101.19
2023-02-11T17:02:02.218Z,101108.00
2023-02-11T17:04:52.733Z,101103.06
2023-02-11T17:07:44.765Z,101118.63
2023-02-11T17:10:32.600Z,101117.69
2023-02-11T17:13:19.666Z,101118.78
2023-02-11T17:16:06.667Z,101131.03
2023-02-11T17:18:54.017Z,101139.75
2023-02-11T17:21:48.534Z,101149.06
2023-02-11T17:24:36.512Z,101154.22
2023-02-11T17:27:23.961Z,101146.25
2023-02-11T17:30:16.495Z,101160.16
2023-02-11T17:33:05.976Z,101127.38
2023-02-11T17:35:54.070Z,101158.28
2023-02-11T17:38:41.366Z,101143.44
2023-02-11T17:41:29.539Z,101164.50
2023-02-11T17:44:16.759Z,101175.13
2023-02-11T17:47:06.546Z,101182.78
2023-02-11T17:49:55.181Z,101149.25
2023-02-11T17:52:41.958Z,101183.28
2023-02-11T17:55:29.084Z,101178.00
2023-02-11T17:58:18.894Z,101175.75
2023-02-11T18:01:07.206Z,101185.56
2023-02-11T18:03:56.782Z,101200.06
2023-02-11T18:06:44.715Z,101210.66
2023-02-11T18:09:32.124Z,101195.91
2023-02-11T18:12:27.197Z,101210.06
2023-02-11T18:15:17.938Z,101216.09
2023-02-11T18:18:05.015Z,101205.13
2023-02-11T18:20:59.917Z,101186.75
2023-02-11T18:23:46.718Z,101210.91
2023-02-11T18:26:35.880Z,101221.50
2023-02-11T18:29:22.828Z,101192.66
2023-02-11T18:32:10.902Z,101220.84
2023-02-11T18:35:00.418Z,101219.28
2023-02-11T18:37:48.721Z,101232.13
2023-02-11T18:40:39.491Z,101228.59
2023-02-11T18:43:32.260Z,101229.56
2023-02-11T18:46:20.907Z,101232.53
2023-02-11T18:49:13.652Z,101244.19
2023-02-11T18:52:03.196Z,101220.66
2023-02-11T18:54:52.514Z,101242.91
2023-02-11T18:57:39.187Z,101256.00
2023-02-11T19:00:31.238Z,101250.31
2023-02-11T19:03:20.317Z,101202.75
2023-02-11T19:06:20.328Z,101265.28
2023-02-11T19:09:10.120Z,101277.81
2023-02-11T19:11:58.170Z,101278.03
2023-02-11T19:14:45.566Z,101274.41
2023-02-11T19:17:32.153Z,101282.66
2023-02-11T19:20:21.541Z,101284.19
2023-02-11T19:23:12.122Z,101274.53
2023-02-11T19:25:58.533Z,101238.50
2023-02-11T19:28:48.349Z,101267.84
2023-02-11T19:31:35.341Z,101295.06
2023-02-11T19:34:24.097Z,101255.72
2023-02-11T19:37:13.890Z,101268.22
2023-02-11T19:40:04.155Z,101311.34
2023-02-11T19:42:52.178Z,101302.75
2023-02-11T19:45:39.462Z,101313.81
2023-02-11T19:48:29.230Z,101331.84
2023-02-11T19:51:17.340Z,101329.13
2023-02-11T19:54:04.443Z,101301.69
2023-02-11T19:56:51.242Z,101337.63
2023-02-11T19:59:39.718Z,101345.28
2023-02-11T20:02:26.661Z,101364.97
2023-02-11T20:05:15.641Z,101343.88
2023-02-11T20:08:02.406Z,101357.91
2023-02-11T20:10:48.842Z,101354.03
2023-02-11T20:13:37.794Z,101363.06
2023-02-11T20:16:45.125Z,101354.72
2023-02-11T20:19:34.672Z,101359.56
2023-02-11T20:22:21.762Z,101353.56
2023-02-11T20:25:11.108Z,101374.91
2023-02-11T20:27:57.483Z,101367.72
2023-02-11T20:30:44.711Z,101350.41
2023-02-11T20:33:31.846Z,101400.28
2023-02-11T20:36:21.895Z,101405.34
2023-02-11T20:39:17.327Z,101408.31
2023-02-11T20:42:03.982Z,101431.44
2023-02-11T20:44:50.805Z,101402.56
2023-02-11T20:47:38.368Z,101426.75
2023-02-11T20:50:24.976Z,101427.34
2023-02-11T20:53:11.563Z,101449.63
2023-02-11T20:56:02.114Z,101441.00
2023-02-11T20:58:51.776Z,101454.59
2023-02-11T21:01:42.997Z,101458.59
2023-02-11T21:04:32.912Z,101434.78
2023-02-11T21:07:19.110Z,101422.53
2023-02-11T21:10:06.379Z,101484.09
2023-02-11T21:12:52.694Z,101478.81
2023-02-11T21:15:39.546Z,101484.00
2023-02-11T21:18:28.765Z,101488.13
2023-02-11T21:21:16.240Z,101492.72
2023-02-11T21:24:03.101Z,101506.06
2023-02-11T21:26:50.081Z,101518.22
2023-02-11T21:29:45.720Z,101529.66
2023-02-11T21:32:40.794Z,101508.31
2023-02-11T21:35:27.142Z,101533.44
2023-02-11T21:38:15.719Z,101522.13
2023-02-11T21:41:06.006Z,101549.16
2023-02-11T21:43:53.179Z,101548.34
2023-02-11T21:46:39.757Z,101543.59
2023-02-11T21:49:26.657Z,101551.53
2023-02-11T21:52:13.024Z,101547.84
2023-02-11T21:54:59.624Z,101551.88
2023-02-11T21:57:46.066Z,101528.38
2023-02-11T22:00:33.931Z,101550.69
2023-02-11T22:03:22.648Z,101566.63
2023-02-11T22:06:15.331Z,101542.06
2023-02-11T22:09:06.467Z,101577.25
2023-02-11T22:11:53.809Z,101583.25
2023-02-11T22:14:40.518Z,101572.28
2023-02-11T22:17:27.227Z,101567.56
2023-02-11T22:20:13.682Z,101562.25
2023-02-11T22:23:00.464Z,101598.16
2023-02-11T22:25:47.195Z,101585.16
2023-02-11T22:28:34.708Z,101589.97
2023-02-11T22:31:30.013Z,101596.47
2023-02-11T22:34:18.825Z,101580.97
2023-02-11T22:37:13.627Z,101560.38
2023-02-11T22:40:00.227Z,101605.84
2023-02-11T22:42:46.799Z,101608.44
2023-02-11T22:45:35.003Z,101626.00
2023-02-11T22:48:23.102Z,101627.97
2023-02-11T22:51:15.013Z,101613.38
2023-02-11T22:54:05.532Z,101622.72
2023-02-11T22:56:52.157Z,101637.34
2023-02-11T22:59:40.786Z,101594.91
2023-02-11T23:02:27.608Z,101627.13
2023-02-11T23:05:14.043Z,101643.81
2023-02-11T23:08:00.758Z,101647.97
2023-02-11T23:10:49.174Z,101632.69
2023-02-11T23:13:37.765Z,101643.22
2023-02-11T23:16:26.749Z,101631.28
2023-02-11T23:19:13.557Z,101659.28
2023-02-11T23:22:00.278Z,101667.78
2023-02-11T23:24:47.129Z,101665.50
2023-02-11T23:27:33.694Z,101671.31
2023-02-11T23:30:23.740Z,101670.56
2023-02-11T23:33:09.899Z,101682.84
2023-02-11T23:35:56.761Z,101699.84
2023-02-11T23:38:44.098Z,101672.91
2023-02-11T23:41:31.323Z,101697.06
2023-02-11T23:44:17.617Z,101701.91
2023-02-11T23:47:04.748Z,101697.53
2023-02-11T23:49:51.188Z,101701.50
2023-02-11T23:52:38.240Z,101717.56
2023-02-11T23:55:24.657Z,101720.94
2023-02-11T23:58:13.125Z,101685.50
